Time;durP1;ratioP1;P1;durP2;ratioP2;P2;SDS_P1;SDS_P2;PMS_P1;PMS_P2;Temp;Humidity;BMP_temperature;BMP_pressure;BME280_temperature;BME280_humidity;BME280_pressure;Samples;Min_cycle;Max_cycle;Signal;HPM_P1;HPM_P2
2022/10/15 00:02:00;;;;;;;;;;;15.50;99.90;;;;;;5044643;28;20034;-78
2022/10/15 00:04:27;;;;;;;;;;;15.50;99.90;;;;;;5047966;28;20629;-78
2022/10/15 00:06:53;;;;;;;;;;;15.50;99.90;;;;;;5048361;28;20451;-80
2022/10/15 00:09:20;;;;;;;;;;;15.50;99.90;;;;;;5046018;28;20384;-78
2022/10/15 00:11:48;;;;;;;;;;;15.50;99.90;;;;;;5046177;28;19999;-78
2022/10/15 00:14:14;;;;;;;;;;;15.50;99.90;;;;;;5043918;28;20336;-78
2022/10/15 00:16:41;;;;;;;;;;;15.50;99.90;;;;;;5043794;28;20014;-79
2022/10/15 00:19:08;;;;;;;;;;;15.50;99.90;;;;;;5045230;28;20034;-78
2022/10/15 00:21:34;;;;;;;;;;;15.50;99.90;;;;;;5043444;28;19998;-78
2022/10/15 00:24:01;;;;;;;;;;;15.50;99.90;;;;;;5049236;28;19979;-78
2022/10/15 00:26:28;;;;;;;;;;;15.50;99.90;;;;;;5044875;28;19979;-78
2022/10/15 00:28:57;;;;;;;;;;;15.50;99.90;;;;;;5048308;28;19980;-79
2022/10/15 00:31:25;;;;;;;;;;;15.50;99.90;;;;;;5045413;28;20004;-77
2022/10/15 00:33:53;;;;;;;;;;;15.50;99.90;;;;;;5045681;28;19985;-77
2022/10/15 00:36:21;;;;;;;;;;;15.50;99.90;;;;;;5046778;28;19986;-78
2022/10/15 00:38:47;;;;;;;;;;;15.50;99.90;;;;;;5044684;28;19991;-78
2022/10/15 00:41:15;;;;;;;;;;;15.50;99.90;;;;;;5044437;28;19987;-78
2022/10/15 00:43:43;;;;;;;;;;;15.50;99.90;;;;;;5043525;28;19987;-76
2022/10/15 00:46:18;;;;;;;;;;;15.50;99.90;;;;;;5037737;28;20002;-77
2022/10/15 00:48:46;;;;;;;;;;;15.50;99.90;;;;;;5039526;28;19998;-75
2022/10/15 00:51:12;;;;;;;;;;;15.50;99.90;;;;;;5040693;28;20467;-77
2022/10/15 00:53:39;;;;;;;;;;;15.50;99.90;;;;;;5044580;28;19980;-77
2022/10/15 00:56:06;;;;;;;;;;;15.50;99.90;;;;;;5041678;28;19998;-77
2022/10/15 00:58:34;;;;;;;;;;;15.50;99.90;;;;;;5043507;28;20534;-77
2022/10/15 01:01:01;;;;;;;;;;;15.50;99.90;;;;;;5041679;28;20027;-76
2022/10/15 01:03:29;;;;;;;;;;;15.50;99.90;;;;;;5042044;28;19992;-76
2022/10/15 01:05:56;;;;;;;;;;;15.50;99.90;;;;;;5039770;28;19976;-78
2022/10/15 01:08:22;;;;;;;;;;;15.50;99.90;;;;;;5044754;28;20003;-78
2022/10/15 01:10:52;;;;;;;;;;;15.50;99.90;;;;;;5043284;28;19999;-78
2022/10/15 01:13:23;;;;;;;;;;;15.50;99.90;;;;;;5044861;28;19991;-77
2022/10/15 01:15:51;;;;;;;;;;;15.50;99.90;;;;;;5044729;28;19998;-77
2022/10/15 01:18:20;;;;;;;;;;;15.50;99.90;;;;;;5040253;28;19999;-76
2022/10/15 01:20:58;;;;;;;;;;;15.50;99.90;;;;;;5043261;28;19991;-77
2022/10/15 01:23:44;;;;;;;;;;;15.50;99.90;;;;;;5037117;28;19983;-77
2022/10/15 01:26:21;;;;;;;;;;;15.50;99.90;;;;;;5035244;28;19979;-77
2022/10/15 01:28:52;;;;;;;;;;;15.60;99.90;;;;;;5037498;28;19975;-77
2022/10/15 01:31:26;;;;;;;;;;;15.60;99.90;;;;;;5039849;28;20006;-77
2022/10/15 01:33:56;;;;;;;;;;;15.60;99.90;;;;;;5041874;28;20003;-77
2022/10/15 01:36:29;;;;;;;;;;;15.60;99.90;;;;;;5042851;28;19986;-77
2022/10/15 01:38:57;;;;;;;;;;;15.60;99.90;;;;;;5036253;28;20082;-78
2022/10/15 01:41:26;;;;;;;;;;;15.60;99.90;;;;;;5039825;28;19987;-78
2022/10/15 01:43:57;;;;;;;;;;;15.60;99.90;;;;;;5041916;28;19976;-77
2022/10/15 01:46:27;;;;;;;;;;;15.60;99.90;;;;;;5040607;28;20039;-78
2022/10/15 01:48:55;;;;;;;;;;;15.60;99.90;;;;;;5043555;28;19972;-78
2022/10/15 01:51:24;;;;;;;;;;;15.60;99.90;;;;;;5041752;28;20469;-77
2022/10/15 01:53:50;;;;;;;;;;;15.60;99.90;;;;;;5042972;28;19978;-78
2022/10/15 01:56:20;;;;;;;;;;;15.60;99.90;;;;;;5041981;28;20355;-77
2022/10/15 01:58:48;;;;;;;;;;;15.60;99.90;;;;;;5041571;28;19999;-77
2022/10/15 02:01:15;;;;;;;;;;;15.60;99.90;;;;;;5040292;28;20003;-79
2022/10/15 02:03:47;;;;;;;;;;;15.60;99.90;;;;;;5039437;28;19979;-77
2022/10/15 02:06:16;;;;;;;;;;;15.60;99.90;;;;;;5037145;28;19979;-77
2022/10/15 02:08:45;;;;;;;;;;;15.60;99.90;;;;;;5042398;28;19975;-77
2022/10/15 02:11:13;;;;;;;;;;;15.60;99.90;;;;;;5044905;28;20715;-77
2022/10/15 02:13:44;;;;;;;;;;;15.60;99.90;;;;;;5046391;28;19976;-78
2022/10/15 02:16:12;;;;;;;;;;;15.70;99.90;;;;;;5043747;28;19996;-78
2022/10/15 02:18:41;;;;;;;;;;;15.60;99.90;;;;;;5047646;28;20039;-77
2022/10/15 02:21:11;;;;;;;;;;;15.60;99.90;;;;;;5046961;28;19996;-77
2022/10/15 02:23:41;;;;;;;;;;;15.70;99.90;;;;;;5046191;28;19976;-76
2022/10/15 02:26:09;;;;;;;;;;;15.60;99.90;;;;;;5050705;28;19979;-78
2022/10/15 02:28:37;;;;;;;;;;;15.60;99.90;;;;;;5048200;28;20647;-77
2022/10/15 02:31:05;;;;;;;;;;;15.60;99.90;;;;;;5045890;28;20006;-78
2022/10/15 02:33:33;;;;;;;;;;;15.70;99.90;;;;;;5045444;28;19984;-78
2022/10/15 02:36:00;;;;;;;;;;;15.60;99.90;;;;;;5049971;28;19976;-80
2022/10/15 02:38:30;;;;;;;;;;;15.60;99.90;;;;;;5046409;28;19999;-79
2022/10/15 02:40:57;;;;;;;;;;;15.70;99.90;;;;;;5044325;28;19991;-79
2022/10/15 02:43:23;;;;;;;;;;;15.70;99.90;;;;;;5043531;28;19976;-77
2022/10/15 02:45:50;;;;;;;;;;;15.60;99.90;;;;;;5045719;28;20002;-78
2022/10/15 02:48:16;;;;;;;;;;;15.70;99.90;;;;;;5045850;28;19987;-78
2022/10/15 02:50:43;;;;;;;;;;;15.70;99.90;;;;;;5047095;28;20069;-78
2022/10/15 02:53:10;;;;;;;;;;;15.70;99.90;;;;;;5051736;28;19987;-79
2022/10/15 02:55:38;;;;;;;;;;;15.70;99.90;;;;;;5038917;28;19976;-81
2022/10/15 02:58:04;;;;;;;;;;;15.70;99.90;;;;;;5048719;28;19995;-79
2022/10/15 03:00:31;;;;;;;;;;;15.70;99.90;;;;;;5040554;28;20003;-79
2022/10/15 03:02:57;;;;;;;;;;;15.70;99.90;;;;;;5047642;28;20008;-80
2022/10/15 03:05:24;;;;;;;;;;;15.70;99.90;;;;;;5047989;28;19983;-77
2022/10/15 03:07:50;;;;;;;;;;;15.70;99.90;;;;;;5049230;28;19975;-80
2022/10/15 03:10:17;;;;;;;;;;;15.70;99.90;;;;;;5045678;28;20003;-79
2022/10/15 03:12:45;;;;;;;;;;;15.70;99.90;;;;;;5047930;28;19983;-78
2022/10/15 03:15:12;;;;;;;;;;;15.70;99.90;;;;;;5048430;28;19984;-78
2022/10/15 03:17:38;;;;;;;;;;;15.70;99.90;;;;;;5045018;28;19991;-78
2022/10/15 03:20:05;;;;;;;;;;;15.70;99.90;;;;;;5047534;28;20743;-79
2022/10/15 03:22:32;;;;;;;;;;;15.70;99.90;;;;;;5049622;28;19975;-78
2022/10/15 03:24:58;;;;;;;;;;;15.70;99.90;;;;;;5041243;28;20318;-79
2022/10/15 03:27:25;;;;;;;;;;;15.70;99.90;;;;;;5044083;28;20007;-80
2022/10/15 03:29:53;;;;;;;;;;;15.80;99.90;;;;;;5045458;28;19999;-78
2022/10/15 03:32:19;;;;;;;;;;;15.70;99.90;;;;;;5042864;28;19999;-80
2022/10/15 03:34:46;;;;;;;;;;;15.80;99.90;;;;;;5045042;28;19982;-78
2022/10/15 03:37:12;;;;;;;;;;;15.70;99.90;;;;;;5044496;28;19984;-78
2022/10/15 03:39:39;;;;;;;;;;;15.70;99.90;;;;;;5044413;28;20526;-80
2022/10/15 03:42:06;;;;;;;;;;;15.70;99.90;;;;;;5040096;28;19987;-79
2022/10/15 03:44:33;;;;;;;;;;;15.70;99.90;;;;;;5046594;28;19980;-78
2022/10/15 03:47:00;;;;;;;;;;;15.70;99.90;;;;;;5042154;28;19991;-77
2022/10/15 03:49:27;;;;;;;;;;;15.70;99.90;;;;;;5044404;28;19992;-77
2022/10/15 03:51:54;;;;;;;;;;;15.80;99.90;;;;;;5045838;28;19978;-78
2022/10/15 03:54:20;;;;;;;;;;;15.80;99.90;;;;;;5045656;28;19979;-77
2022/10/15 03:56:47;;;;;;;;;;;15.80;99.90;;;;;;5041065;28;20454;-79
2022/10/15 03:59:13;;;;;;;;;;;15.80;99.90;;;;;;5044894;28;19937;-78
2022/10/15 04:01:40;;;;;;;;;;;15.80;99.90;;;;;;5045063;28;19929;-78
2022/10/15 04:04:08;;;;;;;;;;;15.80;99.90;;;;;;5043279;28;19932;-79
2022/10/15 04:06:34;;;;;;;;;;;15.80;99.90;;;;;;5038522;28;20385;-79
2022/10/15 04:09:01;;;;;;;;;;;15.80;99.90;;;;;;5043989;28;19940;-78
2022/10/15 04:11:27;;;;;;;;;;;15.80;99.90;;;;;;5040857;28;20531;-80
2022/10/15 04:13:54;;;;;;;;;;;15.80;99.90;;;;;;5045090;28;20659;-79
2022/10/15 04:16:21;;;;;;;;;;;15.80;99.90;;;;;;5045392;28;19955;-80
2022/10/15 04:18:48;;;;;;;;;;;15.80;99.90;;;;;;5045466;28;19935;-81
2022/10/15 04:21:15;;;;;;;;;;;15.80;99.90;;;;;;5048596;28;20687;-81
2022/10/15 04:23:42;;;;;;;;;;;15.80;99.90;;;;;;5048130;28;19929;-80
2022/10/15 04:26:08;;;;;;;;;;;15.80;99.90;;;;;;5044449;28;19933;-81
2022/10/15 04:28:35;;;;;;;;;;;15.90;99.90;;;;;;5047627;28;19936;-79
2022/10/15 04:31:02;;;;;;;;;;;15.80;99.90;;;;;;5043814;28;20027;-81
2022/10/15 04:33:28;;;;;;;;;;;15.80;99.90;;;;;;5045510;28;19932;-79
2022/10/15 04:36:02;;;;;;;;;;;15.80;99.90;;;;;;5044852;28;19928;-78
2022/10/15 04:38:30;;;;;;;;;;;15.80;99.90;;;;;;5045827;28;20580;-80
2022/10/15 04:41:01;;;;;;;;;;;15.80;99.90;;;;;;5044527;28;20757;-80
2022/10/15 04:43:28;;;;;;;;;;;15.80;99.90;;;;;;5044669;28;19977;-80
2022/10/15 04:45:55;;;;;;;;;;;15.80;99.90;;;;;;5042337;28;19928;-78
2022/10/15 04:48:22;;;;;;;;;;;15.80;99.90;;;;;;5044029;28;20031;-78
2022/10/15 04:50:48;;;;;;;;;;;15.80;99.90;;;;;;5042342;28;19936;-80
2022/10/15 04:53:15;;;;;;;;;;;15.80;99.90;;;;;;5043495;28;19929;-81
2022/10/15 04:55:43;;;;;;;;;;;15.80;99.90;;;;;;5040201;28;19956;-80
2022/10/15 04:58:09;;;;;;;;;;;15.90;99.90;;;;;;5044569;28;19929;-79
2022/10/15 05:00:36;;;;;;;;;;;15.80;99.90;;;;;;5039618;28;19929;-70
2022/10/15 05:03:04;;;;;;;;;;;15.90;99.90;;;;;;5039384;28;19940;-70
2022/10/15 05:05:31;;;;;;;;;;;15.80;99.90;;;;;;5043043;28;20433;-70
2022/10/15 05:07:59;;;;;;;;;;;15.90;99.90;;;;;;5042146;28;19932;-70
2022/10/15 05:10:25;;;;;;;;;;;15.80;99.90;;;;;;5041256;28;19933;-70
2022/10/15 05:12:53;;;;;;;;;;;15.80;99.90;;;;;;5033861;28;19929;-69
2022/10/15 05:15:20;;;;;;;;;;;15.80;99.90;;;;;;5039113;28;19928;-69
2022/10/15 05:17:46;;;;;;;;;;;15.80;99.90;;;;;;5043383;28;19935;-70
2022/10/15 05:20:13;;;;;;;;;;;15.90;99.90;;;;;;5043548;28;19940;-70
2022/10/15 05:22:39;;;;;;;;;;;15.90;99.90;;;;;;5040170;28;19936;-70
2022/10/15 05:25:06;;;;;;;;;;;15.80;99.90;;;;;;5036706;28;19928;-70
2022/10/15 05:27:33;;;;;;;;;;;15.90;99.90;;;;;;5044575;28;20352;-70
2022/10/15 05:30:01;;;;;;;;;;;15.80;99.90;;;;;;5041262;28;19929;-70
2022/10/15 05:32:27;;;;;;;;;;;15.80;99.90;;;;;;5040033;28;19940;-70
2022/10/15 05:34:54;;;;;;;;;;;15.80;99.90;;;;;;5044026;28;19936;-70
2022/10/15 05:37:21;;;;;;;;;;;15.80;99.90;;;;;;5041972;28;19936;-70
2022/10/15 05:39:47;;;;;;;;;;;15.80;99.90;;;;;;5040727;28;20446;-69
2022/10/15 05:42:14;;;;;;;;;;;15.80;99.90;;;;;;5040898;28;19952;-71
2022/10/15 05:44:40;;;;;;;;;;;15.80;99.90;;;;;;5041976;28;19951;-71
2022/10/15 05:47:10;;;;;;;;;;;15.90;99.90;;;;;;5033984;28;19955;-70
2022/10/15 05:49:37;;;;;;;;;;;15.80;99.90;;;;;;5043630;28;19933;-69
2022/10/15 05:52:04;;;;;;;;;;;15.80;99.90;;;;;;5043355;28;19948;-71
2022/10/15 05:54:30;;;;;;;;;;;15.80;99.90;;;;;;5039468;28;20401;-70
2022/10/15 05:56:57;;;;;;;;;;;15.80;99.90;;;;;;5041530;28;19932;-70
2022/10/15 05:59:23;;;;;;;;;;;15.80;99.90;;;;;;5039780;28;19935;-70
2022/10/15 06:01:50;;;;;;;;;;;15.80;99.90;;;;;;5043146;28;19929;-70
2022/10/15 06:04:18;;;;;;;;;;;15.80;99.90;;;;;;5040300;28;19929;-71
2022/10/15 06:06:45;;;;;;;;;;;15.80;99.90;;;;;;5039425;28;20431;-70
2022/10/15 06:09:11;;;;;;;;;;;15.80;99.90;;;;;;5042616;28;20546;-70
2022/10/15 06:11:38;;;;;;;;;;;15.80;99.90;;;;;;5041406;28;20601;-71
2022/10/15 06:14:04;;;;;;;;;;;15.80;99.90;;;;;;5043493;28;19963;-72
2022/10/15 06:16:32;;;;;;;;;;;15.80;99.90;;;;;;5033565;28;19960;-72
2022/10/15 06:18:58;;;;;;;;;;;15.80;99.90;;;;;;5032924;28;19936;-73
2022/10/15 06:21:27;;;;;;;;;;;15.80;99.90;;;;;;5038813;28;19929;-74
2022/10/15 06:23:53;;;;;;;;;;;15.80;99.90;;;;;;5036677;28;20038;-74
2022/10/15 06:26:20;;;;;;;;;;;15.80;99.90;;;;;;5031550;28;20039;-74
2022/10/15 06:28:46;;;;;;;;;;;15.80;99.90;;;;;;5039196;28;19929;-74
2022/10/15 06:31:13;;;;;;;;;;;15.80;99.90;;;;;;5041445;28;19935;-74
2022/10/15 06:33:40;;;;;;;;;;;15.80;99.90;;;;;;5034044;28;20377;-73
2022/10/15 06:36:07;;;;;;;;;;;15.80;99.90;;;;;;5036994;28;19994;-74
2022/10/15 06:38:36;;;;;;;;;;;15.80;99.90;;;;;;5037030;28;19929;-73
2022/10/15 06:41:03;;;;;;;;;;;15.80;99.90;;;;;;5039050;28;19929;-74
2022/10/15 06:43:30;;;;;;;;;;;15.80;99.90;;;;;;5040704;28;19929;-73
2022/10/15 06:45:58;;;;;;;;;;;15.80;99.90;;;;;;5037654;28;19936;-73
2022/10/15 06:48:24;;;;;;;;;;;15.80;99.90;;;;;;5034431;28;19932;-73
2022/10/15 06:50:51;;;;;;;;;;;15.80;99.90;;;;;;5042001;28;19929;-74
2022/10/15 06:53:17;;;;;;;;;;;15.80;99.90;;;;;;5038330;28;19932;-74
2022/10/15 06:55:45;;;;;;;;;;;15.80;99.90;;;;;;5038769;28;19929;-74
2022/10/15 06:58:12;;;;;;;;;;;15.80;99.90;;;;;;5040422;28;19940;-74
2022/10/15 07:00:38;;;;;;;;;;;15.80;99.90;;;;;;5040679;28;19936;-71
2022/10/15 07:03:05;;;;;;;;;;;15.80;99.90;;;;;;5044028;28;19929;-74
2022/10/15 07:05:32;;;;;;;;;;;15.80;99.90;;;;;;5045703;28;19929;-73
2022/10/15 07:07:59;;;;;;;;;;;15.80;99.90;;;;;;5043586;28;19943;-73
2022/10/15 07:10:26;;;;;;;;;;;15.80;99.90;;;;;;5045694;28;19929;-74
2022/10/15 07:12:54;;;;;;;;;;;15.80;99.90;;;;;;5036272;28;19928;-73
2022/10/15 07:15:21;;;;;;;;;;;15.90;99.90;;;;;;5043165;28;20412;-73
2022/10/15 07:17:48;;;;;;;;;;;15.80;99.90;;;;;;5043570;28;19932;-73
2022/10/15 07:20:15;;;;;;;;;;;15.70;99.90;;;;;;5042879;28;20047;-73
2022/10/15 07:22:41;;;;;;;;;;;15.80;99.90;;;;;;5038846;28;19944;-73
2022/10/15 07:25:08;;;;;;;;;;;15.80;99.90;;;;;;5041309;28;19960;-72
2022/10/15 07:27:35;;;;;;;;;;;15.70;99.90;;;;;;5039006;28;19929;-73
2022/10/15 07:30:03;;;;;;;;;;;15.80;99.90;;;;;;5044887;28;19954;-73
2022/10/15 07:32:29;;;;;;;;;;;15.80;99.90;;;;;;5041532;28;19928;-71
2022/10/15 07:34:56;;;;;;;;;;;15.70;99.90;;;;;;5045830;28;19928;-75
2022/10/15 07:37:23;;;;;;;;;;;15.80;99.90;;;;;;5037066;28;19952;-71
2022/10/15 07:39:49;;;;;;;;;;;15.80;99.90;;;;;;5045851;28;19931;-70
2022/10/15 07:42:16;;;;;;;;;;;15.70;99.90;;;;;;5044735;28;19929;-70
2022/10/15 07:44:42;;;;;;;;;;;15.80;99.90;;;;;;5043908;28;19933;-70
2022/10/15 07:47:10;;;;;;;;;;;15.80;99.90;;;;;;5037243;28;19936;-69
2022/10/15 07:49:37;;;;;;;;;;;15.80;99.90;;;;;;5046151;28;19928;-70
2022/10/15 07:52:03;;;;;;;;;;;15.70;99.90;;;;;;5042508;28;19935;-71
2022/10/15 07:54:32;;;;;;;;;;;15.80;99.90;;;;;;5039825;28;19932;-71
2022/10/15 07:56:59;;;;;;;;;;;15.80;99.90;;;;;;5041218;28;19936;-71
2022/10/15 07:59:25;;;;;;;;;;;15.70;99.90;;;;;;5037571;28;19936;-70
2022/10/15 08:01:52;;;;;;;;;;;15.80;99.90;;;;;;5043126;28;20392;-71
2022/10/15 08:04:20;;;;;;;;;;;15.80;99.90;;;;;;5043702;28;20309;-70
2022/10/15 08:06:48;;;;;;;;;;;15.80;99.90;;;;;;5040528;28;19972;-71
2022/10/15 08:09:15;;;;;;;;;;;15.80;99.90;;;;;;5043513;28;19928;-72
2022/10/15 08:11:41;;;;;;;;;;;15.80;99.90;;;;;;5045245;28;19935;-70
2022/10/15 08:14:08;;;;;;;;;;;15.80;99.90;;;;;;5043286;28;19936;-71
2022/10/15 08:16:35;;;;;;;;;;;15.80;99.90;;;;;;5042783;28;19929;-71
2022/10/15 08:19:01;;;;;;;;;;;15.80;99.90;;;;;;5044503;28;20485;-70
2022/10/15 08:21:29;;;;;;;;;;;15.90;99.90;;;;;;5042046;28;20330;-70
2022/10/15 08:23:56;;;;;;;;;;;15.80;99.90;;;;;;5044789;28;20360;-70
2022/10/15 08:26:22;;;;;;;;;;;15.80;99.90;;;;;;5043982;28;20415;-70
2022/10/15 08:28:49;;;;;;;;;;;15.80;99.90;;;;;;5045129;28;19933;-71
2022/10/15 08:31:18;;;;;;;;;;;15.80;99.90;;;;;;5040567;28;19963;-71
2022/10/15 08:33:45;;;;;;;;;;;15.80;99.90;;;;;;5042847;28;19929;-71
2022/10/15 08:36:11;;;;;;;;;;;15.90;99.90;;;;;;5041684;28;19929;-70
2022/10/15 08:38:39;;;;;;;;;;;15.80;99.90;;;;;;5044632;28;20376;-70
2022/10/15 08:41:13;;;;;;;;;;;15.80;99.90;;;;;;5038607;28;19929;-70
2022/10/15 08:43:42;;;;;;;;;;;15.80;99.90;;;;;;5044687;28;20407;-70
2022/10/15 08:46:10;;;;;;;;;;;15.80;99.90;;;;;;5038999;28;19933;-71
2022/10/15 08:48:38;;;;;;;;;;;15.80;99.90;;;;;;5036834;28;19933;-70
2022/10/15 08:51:06;;;;;;;;;;;15.80;99.90;;;;;;5040765;28;20302;-70
2022/10/15 08:53:36;;;;;;;;;;;15.90;99.90;;;;;;5040871;28;19929;-71
2022/10/15 08:56:05;;;;;;;;;;;15.90;99.90;;;;;;5042853;28;19936;-70
2022/10/15 08:58:40;;;;;;;;;;;15.90;99.90;;;;;;5038190;28;19936;-70
2022/10/15 09:01:12;;;;;;;;;;;15.90;99.90;;;;;;5036883;28;20348;-69
2022/10/15 09:03:44;;;;;;;;;;;15.90;99.90;;;;;;5042764;28;19936;-69
2022/10/15 09:06:13;;;;;;;;;;;15.90;99.90;;;;;;5034821;28;20431;-69
2022/10/15 09:08:44;;;;;;;;;;;15.90;99.90;;;;;;5044695;28;19964;-69
2022/10/15 09:11:16;;;;;;;;;;;15.90;99.90;;;;;;5038414;28;20874;-69
2022/10/15 09:13:43;;;;;;;;;;;15.90;99.90;;;;;;5031452;28;19936;-69
2022/10/15 09:16:12;;;;;;;;;;;15.90;99.90;;;;;;5037828;28;19933;-69
2022/10/15 09:18:41;;;;;;;;;;;15.90;99.90;;;;;;5037511;28;19933;-69
2022/10/15 09:21:10;;;;;;;;;;;15.90;99.90;;;;;;5041379;28;19933;-69
2022/10/15 09:23:37;;;;;;;;;;;15.90;99.90;;;;;;5041233;28;20039;-69
2022/10/15 09:26:08;;;;;;;;;;;15.90;99.90;;;;;;5042304;28;20305;-69
2022/10/15 09:28:40;;;;;;;;;;;15.90;99.90;;;;;;5042774;28;19960;-69
2022/10/15 09:31:07;;;;;;;;;;;15.90;99.90;;;;;;5042592;28;19928;-69
2022/10/15 09:33:36;;;;;;;;;;;15.90;99.90;;;;;;5041019;28;19928;-69
2022/10/15 09:36:21;;;;;;;;;;;15.90;99.90;;;;;;5040170;28;20670;-69
2022/10/15 09:38:52;;;;;;;;;;;16.00;99.90;;;;;;5044349;28;19936;-69
2022/10/15 09:41:24;;;;;;;;;;;16.00;99.90;;;;;;5038434;28;19932;-69
2022/10/15 09:43:55;;;;;;;;;;;16.00;99.90;;;;;;5043679;28;19936;-69
2022/10/15 09:46:22;;;;;;;;;;;16.00;99.90;;;;;;5037224;28;19932;-70
2022/10/15 09:48:50;;;;;;;;;;;16.00;99.90;;;;;;5042552;28;20412;-69
2022/10/15 09:51:22;;;;;;;;;;;16.00;99.90;;;;;;5036497;28;19932;-70
2022/10/15 09:53:52;;;;;;;;;;;16.00;99.90;;;;;;5038169;28;19933;-69
2022/10/15 09:56:19;;;;;;;;;;;16.00;99.90;;;;;;5037928;28;19932;-70
2022/10/15 09:58:49;;;;;;;;;;;16.10;99.90;;;;;;5040670;28;19928;-70
2022/10/15 10:01:18;;;;;;;;;;;16.10;99.90;;;;;;5041742;28;20324;-69
2022/10/15 10:03:45;;;;;;;;;;;16.10;99.90;;;;;;5041721;28;19928;-69
2022/10/15 10:06:13;;;;;;;;;;;16.10;99.90;;;;;;5038440;28;19929;-69
2022/10/15 10:08:41;;;;;;;;;;;16.20;99.90;;;;;;5043673;28;20393;-70
2022/10/15 10:11:08;;;;;;;;;;;16.20;99.90;;;;;;5036606;28;19936;-71
2022/10/15 10:13:38;;;;;;;;;;;16.20;99.90;;;;;;5033573;28;19964;-69
2022/10/15 10:16:05;;;;;;;;;;;16.20;99.90;;;;;;5039942;28;19928;-70
2022/10/15 10:18:36;;;;;;;;;;;16.20;99.90;;;;;;5041246;28;19929;-72
2022/10/15 10:21:04;;;;;;;;;;;16.20;99.90;;;;;;5041433;28;20027;-72
2022/10/15 10:23:33;;;;;;;;;;;16.30;99.90;;;;;;5043479;28;20288;-72
2022/10/15 10:26:00;;;;;;;;;;;16.30;99.90;;;;;;5039387;28;19936;-71
2022/10/15 10:28:29;;;;;;;;;;;16.30;99.90;;;;;;5043072;28;19944;-72
2022/10/15 10:31:02;;;;;;;;;;;16.30;99.90;;;;;;5045042;28;19929;-72
2022/10/15 10:33:30;;;;;;;;;;;16.30;99.90;;;;;;5044897;28;19942;-72
2022/10/15 10:35:58;;;;;;;;;;;16.30;99.90;;;;;;5041143;28;19929;-72
2022/10/15 10:38:26;;;;;;;;;;;16.40;99.90;;;;;;5046022;28;19936;-72
2022/10/15 10:40:54;;;;;;;;;;;16.30;99.90;;;;;;5043019;28;20372;-72
2022/10/15 10:43:24;;;;;;;;;;;16.40;99.90;;;;;;5045028;28;19932;-71
2022/10/15 10:45:54;;;;;;;;;;;16.40;99.90;;;;;;5042479;28;20237;-72
2022/10/15 10:48:22;;;;;;;;;;;16.40;99.90;;;;;;5045188;28;19995;-72
2022/10/15 10:51:01;;;;;;;;;;;16.50;99.90;;;;;;5040801;28;19937;-72
2022/10/15 10:53:29;;;;;;;;;;;16.50;99.90;;;;;;5043239;28;19936;-71
2022/10/15 10:55:57;;;;;;;;;;;16.60;99.90;;;;;;5039885;28;19929;-72
2022/10/15 10:58:24;;;;;;;;;;;16.60;99.90;;;;;;5040927;28;19928;-72
2022/10/15 11:00:52;;;;;;;;;;;16.70;99.90;;;;;;5041144;28;20632;-73
2022/10/15 11:03:30;;;;;;;;;;;16.80;99.90;;;;;;5038821;28;19976;-72
2022/10/15 11:05:59;;;;;;;;;;;16.80;99.90;;;;;;5040958;28;19985;-72
2022/10/15 11:08:29;;;;;;;;;;;16.90;99.90;;;;;;5040424;28;19929;-71
2022/10/15 11:11:01;;;;;;;;;;;17.00;99.90;;;;;;5044267;28;19929;-71
2022/10/15 11:13:34;;;;;;;;;;;17.10;99.90;;;;;;5043505;28;19936;-72
2022/10/15 11:16:03;;;;;;;;;;;17.10;99.90;;;;;;5036650;28;20711;-72
2022/10/15 11:18:41;;;;;;;;;;;17.10;99.90;;;;;;5038774;28;19936;-73
2022/10/15 11:21:14;;;;;;;;;;;17.20;99.90;;;;;;5042981;28;19932;-72
2022/10/15 11:23:53;;;;;;;;;;;17.20;99.90;;;;;;5044222;28;19937;-72
2022/10/15 11:26:30;;;;;;;;;;;17.30;99.90;;;;;;5043306;28;19929;-72
2022/10/15 11:29:05;;;;;;;;;;;17.20;99.90;;;;;;5047084;28;19924;-72
2022/10/15 11:31:34;;;;;;;;;;;17.20;99.90;;;;;;5045375;28;20458;-72
2022/10/15 11:34:06;;;;;;;;;;;17.20;99.90;;;;;;5037441;28;20476;-71
2022/10/15 11:36:36;;;;;;;;;;;17.20;99.90;;;;;;5034400;28;19940;-72
2022/10/15 11:39:11;;;;;;;;;;;17.20;99.90;;;;;;5044867;28;19929;-72
2022/10/15 11:41:41;;;;;;;;;;;17.20;99.90;;;;;;5043403;28;19954;-71
2022/10/15 11:44:21;;;;;;;;;;;17.10;99.90;;;;;;5046722;28;19936;-73
2022/10/15 11:46:51;;;;;;;;;;;17.10;99.90;;;;;;5034426;28;19929;-71
2022/10/15 11:49:21;;;;;;;;;;;17.10;99.90;;;;;;5043699;28;19929;-72
2022/10/15 11:51:57;;;;;;;;;;;17.10;99.90;;;;;;5041423;28;20396;-72
2022/10/15 11:54:28;;;;;;;;;;;17.10;99.70;;;;;;5034668;28;20367;-72
2022/10/15 11:56:58;;;;;;;;;;;17.10;99.70;;;;;;5032610;28;19929;-71
2022/10/15 11:59:32;;;;;;;;;;;17.10;99.70;;;;;;5041374;28;20718;-72
2022/10/15 12:02:00;;;;;;;;;;;17.10;99.70;;;;;;5040330;28;20463;-71
2022/10/15 12:04:30;;;;;;;;;;;17.20;99.80;;;;;;5041323;28;19928;-71
2022/10/15 12:06:58;;;;;;;;;;;17.10;99.80;;;;;;5042285;28;20719;-72
2022/10/15 12:09:26;;;;;;;;;;;17.10;99.70;;;;;;5045703;28;19928;-72
2022/10/15 12:11:55;;;;;;;;;;;17.20;99.70;;;;;;5045400;28;19929;-72
2022/10/15 12:14:25;;;;;;;;;;;17.20;99.60;;;;;;5036269;28;19968;-72
2022/10/15 12:16:56;;;;;;;;;;;17.20;99.50;;;;;;5035838;28;19935;-71
2022/10/15 12:19:25;;;;;;;;;;;17.30;99.40;;;;;;5044434;28;19935;-72
2022/10/15 12:22:05;;;;;;;;;;;17.20;99.30;;;;;;5042460;28;19960;-72
2022/10/15 12:24:52;;;;;;;;;;;17.20;99.50;;;;;;5036589;28;19929;-72
2022/10/15 12:27:34;;;;;;;;;;;17.30;99.00;;;;;;5043058;28;19932;-71
2022/10/15 12:30:27;;;;;;;;;;;17.30;98.90;;;;;;5042449;28;19933;-72
2022/10/15 12:32:55;;;;;;;;;;;17.30;98.90;;;;;;5006141;28;19925;-72
2022/10/15 12:35:25;;;;;;;;;;;17.30;99.00;;;;;;5040329;28;19931;-72
2022/10/15 12:37:52;;;;;;;;;;;17.30;98.80;;;;;;5041722;28;20050;-71
2022/10/15 12:40:29;;;;;;;;;;;17.30;98.60;;;;;;5041026;28;19925;-72
2022/10/15 12:42:56;;;;;;;;;;;17.30;98.60;;;;;;5038114;28;19925;-71
2022/10/15 12:45:24;;;;;;;;;;;17.40;98.60;;;;;;5042783;28;19925;-72
2022/10/15 12:47:52;;;;;;;;;;;17.40;98.70;;;;;;5040866;28;19932;-69
2022/10/15 12:50:21;;;;;;;;;;;17.40;98.70;;;;;;5040869;28;19978;-72
2022/10/15 12:53:06;;;;;;;;;;;17.40;98.70;;;;;;5041477;28;20565;-72
2022/10/15 12:55:34;;;;;;;;;;;17.40;98.60;;;;;;5040028;28;20163;-72
2022/10/15 12:58:02;;;;;;;;;;;17.40;98.50;;;;;;5035541;28;19932;-72
2022/10/15 13:00:30;;;;;;;;;;;17.40;98.40;;;;;;5035824;28;20055;-72
2022/10/15 13:03:07;;;;;;;;;;;17.40;98.30;;;;;;5041018;28;20380;-72
2022/10/15 13:05:35;;;;;;;;;;;17.50;98.30;;;;;;5043262;28;19936;-72
2022/10/15 13:08:03;;;;;;;;;;;17.40;98.20;;;;;;5039984;28;20186;-72
2022/10/15 13:10:33;;;;;;;;;;;17.50;98.20;;;;;;5037018;28;19948;-71
2022/10/15 13:13:01;;;;;;;;;;;17.50;98.30;;;;;;5038773;28;19940;-72
2022/10/15 13:15:29;;;;;;;;;;;17.40;98.30;;;;;;5039354;28;19940;-72
2022/10/15 13:17:57;;;;;;;;;;;17.50;98.40;;;;;;5039698;28;19928;-72
2022/10/15 13:20:29;;;;;;;;;;;17.50;98.50;;;;;;5040118;28;19935;-72
2022/10/15 13:23:08;;;;;;;;;;;17.50;98.50;;;;;;5038861;28;19929;-71
2022/10/15 13:25:34;;;;;;;;;;;17.50;98.50;;;;;;5037576;28;20003;-70
2022/10/15 13:28:01;;;;;;;;;;;17.50;98.40;;;;;;5038001;28;19948;-71
2022/10/15 13:30:27;;;;;;;;;;;17.50;98.40;;;;;;5041365;28;20668;-70
2022/10/15 13:32:55;;;;;;;;;;;17.60;98.40;;;;;;5041130;28;19928;-72
2022/10/15 13:35:24;;;;;;;;;;;17.50;98.30;;;;;;5041445;28;19929;-71
2022/10/15 13:37:52;;;;;;;;;;;17.50;98.30;;;;;;5034907;28;20456;-72
2022/10/15 13:40:21;;;;;;;;;;;17.60;98.30;;;;;;5036466;28;19936;-72
2022/10/15 13:42:58;;;;;;;;;;;17.60;98.40;;;;;;5035193;28;19928;-72
2022/10/15 13:45:24;;;;;;;;;;;17.60;98.50;;;;;;5039604;28;19932;-72
2022/10/15 13:47:52;;;;;;;;;;;17.60;98.40;;;;;;5039008;28;19937;-72
2022/10/15 13:50:20;;;;;;;;;;;17.50;98.50;;;;;;5040996;28;19968;-72
2022/10/15 13:52:48;;;;;;;;;;;17.60;98.50;;;;;;5041267;28;19929;-72
2022/10/15 13:55:17;;;;;;;;;;;17.60;98.50;;;;;;5035178;28;19932;-71
2022/10/15 13:57:46;;;;;;;;;;;17.60;98.50;;;;;;5040337;28;20324;-72
2022/10/15 14:00:23;;;;;;;;;;;17.60;98.60;;;;;;5041000;28;19972;-71
2022/10/15 14:03:04;;;;;;;;;;;17.60;98.60;;;;;;5037013;28;19929;-72
2022/10/15 14:05:31;;;;;;;;;;;17.60;98.70;;;;;;5041219;28;19929;-71
2022/10/15 14:07:57;;;;;;;;;;;17.60;98.80;;;;;;5037493;28;19940;-71
2022/10/15 14:10:24;;;;;;;;;;;17.60;99.20;;;;;;5034569;28;19936;-72
2022/10/15 14:12:52;;;;;;;;;;;17.60;98.90;;;;;;5043681;28;20012;-72
2022/10/15 14:15:37;;;;;;;;;;;17.50;98.90;;;;;;5036718;28;19936;-72
2022/10/15 14:18:04;;;;;;;;;;;17.50;99.00;;;;;;5034169;28;20289;-72
2022/10/15 14:20:30;;;;;;;;;;;17.60;99.00;;;;;;5036150;28;19951;-72
2022/10/15 14:22:57;;;;;;;;;;;17.50;99.00;;;;;;5036879;28;19936;-72
2022/10/15 14:25:24;;;;;;;;;;;17.50;99.10;;;;;;5036256;28;19928;-72